WHISKEYTOWN DAM (USBR) (WHI)

Elevation: 1210' · SACRAMENTO R basin · Operator: US Bureau of Reclamation

Provisional data, subject to change.
Query executed Tuesday at 15:52:36   clock

Select a sensor type for a plot of data.
Note: Reservoir Flows are daily averages.

Earlier

Date RES ELE    STORAGE    RES CHG    OUTFLOW    INFLOW    EVAP    RIV REL    PPT INC    RAIN    SPILL    DIS PWR   
 FEET   AF   AF   CFS   CFS   CFS   CFS   INCHES   INCHES   CFS   CFS  
10/26/2014 1201.88 215774 -727 1192 829 4 174 0.54 2.64 0 1018
10/27/2014 1201.87 215744 -30 650 635 0 174 0.00 2.64 0 476
10/28/2014 1202.11 216470 726 352 718 0 174 0.00 2.64 0 178
10/29/2014 1201.56 214809 -1661 1613 778 2 174 0.00 2.64 0 1439
10/30/2014 1200.55 211772 -3037 2284 757 4 173 0.00 2.64 0 2111
10/31/2014 1200.55 211772 0 891 894 3 173 0.61 3.25 0 718
11/01/2014 1199.58 208878 -2894 2235 779 3 173 0.61 3.86 0 2062
11/02/2014 1198.52 205741 -3137 2138 559 3 158 0.61 4.47 0 1980
11/03/2014 1198.42 205446 -295 1137 992 4 172 0.11 4.58 0 965
11/04/2014 1198.33 205181 -265 191 57 0 172 0.00 4.58 0 19
11/05/2014 1198.26 204975 -206 186 83 1 172 0.00 4.58 0 14
11/06/2014 1198.33 205181 206 186 291 1 172 0.00 4.58 0 14
11/07/2014 1198.34 205211 30 186 202 1 172 0.00 4.58 0 14
11/08/2014 1198.32 205152 -59 186 158 2 172 0.00 4.58 0 14
11/09/2014 1198.23 204887 -265 186 54 2 172 0.00 4.58 0 14
11/10/2014 1198.35 205240 353 186 367 3 172 0.00 4.58 0 14
11/11/2014 1198.51 205711 471 186 426 3 172 0.00 4.58 0 14
11/12/2014 1198.42 205446 -265 186 53 1 172 0.00 4.58 0 14
11/13/2014 1198.41 205417 -29 186 171 0 172 0.26 4.84 0 14
11/14/2014 1198.41 205417 0 190 190 0 172 0.05 4.89 0 18
11/15/2014 1198.42 205446 29 186 201 0 172 0.02 4.91 0 14
11/16/2014 1198.30 205093 -353 264 86 0 172 0.00 4.91 0 92
11/17/2014 1198.32 205152 59 190 224 4 172 0.00 4.91 0 18
11/18/2014 1198.44 205505 353 186 367 3 172 0.00 4.91 0 14
11/19/2014 1198.57 205888 383 269 464 2 172 0.00 4.91 0 97
11/20/2014 1198.66 206153 265 236 370 0 172 0.68 5.59 0 64
11/21/2014 1198.10 204504 -1649 1163 332 0 172 0.28 5.87 0 991
11/22/2014 1198.19 204769 265 186 322 2 172 1.47 7.34 0 14
11/23/2014 1198.18 204739 -30 186 173 2 172 0.03 7.37 0 14
11/24/2014 1198.45 205535 796 187 590 2 172 0.00 7.37 0 15
11/25/2014 -- -- -- -- -- -- -- -- -- -- --

Later | Latest

Warning! This data is preliminary and subject to revision.

Show WHI Map | Plot WHI Data | 1 Month WHI Data | Real-Time WHI Data | WHI Info